Bouton, IA

3:14 AM CDT on October 22, 2019 (GMT -0500)
Home | | Change Station
Active Advisory: Wind Advisory

Elev 1476 ft 41.85 °N, 94.04 °W | Updated 4 seconds ago

Overcast
Overcast
45 °F
Feels Like 41 °F
N
7
Wind Variable Wind from SW
Gusts 15.0 mph

Today
High -- | Low -- °F
--% Chance of Precip.
Yesterday
High -- | Low -- °F
Precip. -- in
Pressure 29.60 in
Visibility 10.0 miles
Clouds Overcast 2700 ft
Windchill 41 °F
Dew Point 40 °F
Humidity 87%
Rainfall 0.02 in
Snow Depth Not available.
7:36 AM 6:24 PM
Last Quarter, 41% visible
METAR KPRO 220815Z AUTO 28022G35KT 10SM OVC027 08/04 A2960 RMK AO2 T00760035
Pressure 29.60 in
Visibility 10.0 miles
Clouds Overcast 2700 ft
Windchill 41 °F
Dew Point 40 °F
Humidity 87%
Rainfall 0.02 in
Snow Depth Not available.
7:36 AM 6:24 PM
Last Quarter, 41% visible
METAR KPRO 220815Z AUTO 28022G35KT 10SM OVC027 08/04 A2960 RMK AO2 T00760035

Get Your Daily Forecast Email!

Thanks for signing up!

Be on the lookout for a verification email in your inbox.

You'll start receiving severe weather alerts in your inbox..

×

10-Day Weather Forecast

Almanac

Astronomy

Oct. 22, 2019 Rise Set
Actual Time
Civil Twilight
Nautical Twilight
Astronomical Twilight
Moon
Length of Visible Light
Length of Day
Tomorrow will be .
, % of the Moon is Illuminated

Today's Extremes

State Highs State Lows

Community

WunderPhotos

Category 6

Welcome to Category 6. This is the collective home for Weather Underground's featured writeups by Dr. Jeff Masters (right), Bob Henson (left), Chris Burt, and other regular contributors.

Nearby

Air Quality

  Air Quality AQ Index Pollutant
Not available.

Snow Depth

Station Depth Elevation

Earthquake Activity

City Distance Mag. Time & Date
Minimum magnitude displayed is 2.5.

Coastal Water Temperatures

Place Temperature

Stations

Nearby Weather Stations

Station Location Temp. Windchill Dew Point Humidity Wind Precip. Elev Updated Type
                   

Watches & Warnings

Wind Advisory
Issued: 9:40 PM CDT Oct. 21, 2019 – National Weather Service

... Wind Advisory remains in effect until 4 PM CDT Tuesday...

* what... west winds 20 to 35 mph with gusts up to 50 mph
expected.

* Where... much of central Iowa.

* When... from 6 PM this evening to 4 PM CDT Tuesday.

* Impacts... gusty winds could blow around unsecured objects.
Tree limbs could be blown down and a few power outages may
result.

Precautionary/preparedness actions...

Use extra caution when driving, especially if operating a high
profile vehicle. Secure outdoor objects.



Curtis